Time;durP1;ratioP1;P1;durP2;ratioP2;P2;SDS_P1;SDS_P2;PMS_P1;PMS_P2;Temp;Humidity;BMP_temperature;BMP_pressure;BME280_temperature;BME280_humidity;BME280_pressure;Samples;Min_cycle;Max_cycle;Signal;HPM_P1;HPM_P2
2022/01/12 00:01:05;;;;;;;23.05;11.93;;;;;;;1.80;83.78;103552.53;5014423;28;20071;-80
2022/01/12 00:03:32;;;;;;;21.73;11.93;;;;;;;1.81;83.84;103559.56;5014240;28;20117;-80
2022/01/12 00:05:58;;;;;;;22.52;12.40;;;;;;;1.81;83.56;103565.69;5031695;28;20442;-80
2022/01/12 00:08:25;;;;;;;25.70;13.18;;;;;;;1.81;83.93;103570.91;5033773;28;20075;-80
2022/01/12 00:10:50;;;;;;;22.92;12.20;;;;;;;1.81;83.91;103564.81;5033199;28;20507;-80
2022/01/12 00:13:16;;;;;;;23.15;12.82;;;;;;;1.84;83.84;103580.66;5033544;28;20151;-80
2022/01/12 00:15:41;;;;;;;25.52;12.80;;;;;;;1.84;84.02;103578.03;5033295;28;20045;-80
2022/01/12 00:18:07;;;;;;;23.40;13.57;;;;;;;1.85;84.15;103582.44;5050170;28;20037;-80
2022/01/12 00:20:33;;;;;;;21.17;12.90;;;;;;;1.82;83.88;103575.31;5050116;28;20033;-80
2022/01/12 00:22:58;;;;;;;24.27;12.68;;;;;;;1.83;84.08;103577.13;5033235;28;20037;-80
2022/01/12 00:25:31;;;;;;;20.98;12.07;;;;;;;1.84;84.50;103581.53;5049845;28;20086;-80
2022/01/12 00:33:32;;;;;;;24.88;12.88;;;;;;;1.85;84.33;103611.19;5029519;28;20057;-80
2022/01/12 00:35:58;;;;;;;28.35;13.18;;;;;;;1.84;85.21;103607.66;5013033;28;20033;-80
2022/01/12 00:38:29;;;;;;;22.77;12.45;;;;;;;1.84;85.78;103601.56;5013716;28;20049;-81
2022/01/12 00:40:57;;;;;;;23.08;13.13;;;;;;;1.85;85.63;103611.19;5013512;28;20041;-80
2022/01/12 00:43:26;;;;;;;21.52;12.70;;;;;;;1.85;86.16;103605.94;5029846;28;20037;-80
2022/01/12 00:45:52;;;;;;;23.67;14.38;;;;;;;1.86;86.54;103618.22;4997003;28;20060;-80
2022/01/12 00:48:18;;;;;;;26.83;14.75;;;;;;;1.81;87.14;103614.44;5029614;28;20049;-79
2022/01/12 00:50:45;;;;;;;31.02;14.57;;;;;;;1.81;88.06;103623.19;5029443;28;20037;-79
2022/01/12 00:53:10;;;;;;;26.38;14.75;;;;;;;1.79;88.12;103618.66;5029683;28;20033;-78
2022/01/12 00:55:37;;;;;;;26.55;14.30;;;;;;;1.74;88.64;103620.13;5013462;28;20037;-78
2022/01/12 00:58:03;;;;;;;29.48;15.10;;;;;;;1.75;89.19;103629.75;5016661;28;20029;-78
2022/01/12 01:00:30;;;;;;;29.90;15.80;;;;;;;1.71;89.51;103620.84;5013045;28;20033;-79
2022/01/12 01:02:56;;;;;;;26.50;14.45;;;;;;;1.74;90.07;103618.41;5029293;28;20044;-79
2022/01/12 01:05:24;;;;;;;31.67;16.33;;;;;;;1.75;89.88;103620.19;5029266;28;20040;-79
2022/01/12 01:07:51;;;;;;;33.67;15.60;;;;;;;1.69;91.12;103620.75;5030738;28;20480;-79
2022/01/12 01:12:58;;;;;;;31.20;15.88;;;;;;;1.60;91.13;103616.69;5029181;28;20381;-79
2022/01/12 01:15:41;;;;;;;32.35;15.52;;;;;;;1.59;91.83;103614.88;5012790;28;20167;-78
2022/01/12 01:26:20;;;;;;;26.52;14.32;;;;;;;1.49;91.97;103606.50;5017803;28;20057;-78
2022/01/12 01:28:47;;;;;;;29.08;16.27;;;;;;;1.49;92.87;103616.94;5032263;28;20128;-79
2022/01/12 01:31:13;;;;;;;28.65;16.63;;;;;;;1.46;93.10;103622.00;5032350;28;20123;-79
2022/01/12 01:33:40;;;;;;;26.75;15.20;;;;;;;1.45;92.87;103627.09;5032292;28;20068;-78
2022/01/12 01:36:07;;;;;;;25.38;14.02;;;;;;;1.45;93.06;103633.22;5048794;28;20028;-78
2022/01/12 01:38:35;;;;;;;31.05;16.33;;;;;;;1.44;93.24;103641.88;5048455;28;20123;-79
2022/01/12 01:41:01;;;;;;;27.10;15.32;;;;;;;1.44;93.53;103644.50;5048498;28;20396;-78
2022/01/12 01:54:18;;;;;;;28.83;15.90;;;;;;;1.40;94.23;103621.59;5048493;28;20120;-79
2022/01/12 01:56:44;;;;;;;21.30;13.40;;;;;;;1.41;94.41;103626.03;5048351;28;20128;-79
2022/01/12 01:59:09;;;;;;;29.90;15.20;;;;;;;1.40;94.21;103618.09;5033437;28;20100;-80
2022/01/12 02:01:38;;;;;;;33.83;16.70;;;;;;;1.39;94.87;103617.19;5028774;28;20037;-79
2022/01/12 02:04:05;;;;;;;29.50;16.27;;;;;;;1.38;94.37;103612.78;5028148;28;20042;-79
2022/01/12 02:06:34;;;;;;;33.22;17.10;;;;;;;1.38;94.28;103609.25;5012647;28;20076;-79
2022/01/12 02:08:59;;;;;;;26.48;16.10;;;;;;;1.40;94.44;103613.75;5011899;28;20046;-79
2022/01/12 02:11:50;;;;;;;31.92;17.83;;;;;;;1.40;94.70;103602.44;5000554;28;20417;-79
2022/01/12 02:14:16;;;;;;;29.35;17.02;;;;;;;1.43;94.61;103602.59;5028658;28;20065;-79
2022/01/12 02:16:53;;;;;;;34.40;17.33;;;;;;;1.38;94.75;103612.78;5029929;28;20465;-79
2022/01/12 02:19:47;;;;;;;36.25;17.17;;;;;;;1.38;94.25;103617.09;4997058;28;20045;-79
2022/01/12 02:35:53;;;;;;;37.25;20.05;;;;;;;1.42;94.92;103642.59;5037791;28;20120;-79
2022/01/12 02:41:04;;;;;;;41.83;20.35;;;;;;;1.43;94.91;103645.28;5052027;28;20037;-80
2022/01/12 02:51:28;;;;;;;37.90;20.50;;;;;;;1.34;96.41;103649.97;5051912;28;20082;-79
2022/01/12 02:53:54;;;;;;;41.20;21.13;;;;;;;1.31;96.80;103662.84;5051641;28;20419;-79
2022/01/12 02:56:31;;;;;;;44.25;21.50;;;;;;;1.29;96.69;103654.00;5035186;28;20070;-79
2022/01/12 02:58:59;;;;;;;45.70;22.33;;;;;;;1.32;97.24;103671.56;5031640;28;20041;-80
2022/01/12 03:04:04;;;;;;;41.27;21.53;;;;;;;1.30;96.92;103679.28;5015966;28;20041;-79
2022/01/12 03:06:34;;;;;;;42.63;22.15;;;;;;;1.31;96.87;103686.34;5031706;28;20037;-80
2022/01/12 03:09:01;;;;;;;33.30;20.05;;;;;;;1.35;97.10;103690.03;5015761;28;20542;-80
2022/01/12 03:11:28;;;;;;;43.78;23.63;;;;;;;1.35;96.66;103693.53;5031376;28;20049;-80
2022/01/12 03:13:58;;;;;;;43.60;23.27;;;;;;;1.38;96.54;103700.66;5015406;28;20048;-80
2022/01/12 03:16:25;;;;;;;46.92;22.13;;;;;;;1.37;96.66;103699.75;5015406;28;20045;-80
2022/01/12 03:18:55;;;;;;;40.72;22.55;;;;;;;1.39;96.73;103705.09;5015401;28;20128;-79
2022/01/12 03:21:25;;;;;;;40.95;21.45;;;;;;;1.38;95.88;103704.16;5031696;28;20215;-79
2022/01/12 03:23:52;;;;;;;47.78;23.58;;;;;;;1.39;96.31;103708.59;5031084;28;20029;-80
2022/01/12 03:26:18;;;;;;;43.58;22.75;;;;;;;1.38;96.83;103698.94;5033722;28;20083;-79
2022/01/12 03:28:52;;;;;;;45.65;22.67;;;;;;;1.41;96.36;103700.84;5034704;28;20041;-80
2022/01/12 03:31:21;;;;;;;41.80;23.65;;;;;;;1.41;96.32;103700.84;5035938;28;20041;-80
2022/01/12 03:39:04;;;;;;;41.58;23.85;;;;;;;1.35;96.79;103703.97;5037208;28;20048;-79
2022/01/12 03:41:34;;;;;;;47.38;23.13;;;;;;;1.38;97.11;103696.31;5034455;28;20033;-79
2022/01/12 03:44:02;;;;;;;48.85;25.17;;;;;;;1.36;96.87;103695.34;5050868;28;20029;-79
2022/01/12 03:46:31;;;;;;;38.45;21.25;;;;;;;1.36;96.99;103699.66;5050527;28;20166;-79
2022/01/12 03:48:56;;;;;;;52.55;24.30;;;;;;;1.35;97.17;103695.25;5050636;28;20119;-79
2022/01/12 03:51:22;;;;;;;44.85;23.02;;;;;;;1.35;96.95;103706.59;5051007;28;20124;-79
2022/01/12 03:53:48;;;;;;;44.85;23.27;;;;;;;1.36;97.23;103712.69;5050698;28;20041;-79
2022/01/12 03:56:14;;;;;;;43.25;22.90;;;;;;;1.37;96.76;103724.97;5018003;28;20044;-79
2022/01/12 03:58:41;;;;;;;51.85;23.95;;;;;;;1.35;97.02;103718.75;5017326;28;20044;-79
2022/01/12 04:01:07;;;;;;;44.67;24.40;;;;;;;1.35;96.97;103723.97;5050957;28;20047;-79
2022/01/12 04:03:37;;;;;;;41.45;22.27;;;;;;;1.38;97.45;103726.75;5050769;28;20044;-79
2022/01/12 04:08:47;;;;;;;41.40;20.73;;;;;;;1.41;97.38;103724.34;5050692;28;20063;-79
2022/01/12 04:11:13;;;;;;;45.85;23.00;;;;;;;1.42;96.82;103721.84;5050298;28;20513;-79
2022/01/12 04:13:40;;;;;;;45.03;23.77;;;;;;;1.44;96.99;103719.31;5017459;28;20420;-79
2022/01/12 04:16:06;;;;;;;42.67;24.42;;;;;;;1.43;97.45;103713.19;5051957;28;20047;-79
2022/01/12 04:18:33;;;;;;;42.80;24.35;;;;;;;1.44;97.10;103722.84;5033684;28;20047;-78
2022/01/12 04:21:02;;;;;;;42.72;25.05;;;;;;;1.46;96.98;103717.72;5033734;28;20147;-79
2022/01/12 04:23:29;;;;;;;39.55;22.17;;;;;;;1.48;96.55;103714.38;5050094;28;20039;-79
2022/01/12 04:25:59;;;;;;;42.60;22.02;;;;;;;1.48;96.94;103706.56;5050026;28;20040;-79
2022/01/12 04:28:29;;;;;;;44.83;24.48;;;;;;;1.50;96.92;103709.25;5033367;28;20414;-79
2022/01/12 04:30:57;;;;;;;42.80;22.20;;;;;;;1.50;97.28;103711.84;5033283;28;20037;-79
2022/01/12 04:33:23;;;;;;;47.97;25.05;;;;;;;1.47;97.41;103714.28;5049734;28;20044;-79
2022/01/12 04:35:54;;;;;;;42.72;25.05;;;;;;;1.45;97.93;103714.19;5050086;28;20041;-79
2022/01/12 04:38:21;;;;;;;;;;;;;;;1.49;96.70;103713.56;5033720;28;20113;-79
2022/01/12 04:40:47;;;;;;;39.30;22.80;;;;;;;1.46;96.94;103700.34;5049988;28;19971;-79
2022/01/12 04:43:14;;;;;;;37.53;22.27;;;;;;;1.45;97.28;103711.56;5033332;28;20482;-79
2022/01/12 04:50:46;;;;;;;36.97;22.63;;;;;;;1.44;97.83;103708.88;5041431;28;20069;-79
2022/01/12 04:53:12;;;;;;;42.42;23.67;;;;;;;1.43;97.80;103700.13;5029808;28;20501;-79
2022/01/12 04:55:38;;;;;;;39.28;21.98;;;;;;;1.45;97.76;103706.34;5029641;28;20450;-80
2022/01/12 04:58:05;;;;;;;42.50;22.63;;;;;;;1.45;97.60;103705.44;5012352;28;20030;-79
2022/01/12 05:00:33;;;;;;;39.90;24.00;;;;;;;1.41;97.68;103698.22;5013256;28;20139;-79
2022/01/12 05:13:42;;;;;;;45.90;25.35;;;;;;;1.43;98.29;103710.56;5028962;28;20129;-79
2022/01/12 05:16:11;;;;;;;47.80;24.27;;;;;;;1.44;97.88;103715.00;5029425;28;20025;-79
2022/01/12 05:18:40;;;;;;;43.03;22.50;;;;;;;1.46;98.35;103704.66;5028848;28;20033;-80
2022/01/12 05:21:08;;;;;;;46.85;24.30;;;;;;;1.45;98.12;103701.13;5029019;28;20045;-79
2022/01/12 05:23:34;;;;;;;39.28;23.90;;;;;;;1.48;97.62;103716.06;5012625;28;20040;-80
2022/01/12 05:26:01;;;;;;;46.90;24.30;;;;;;;1.46;98.13;103710.78;5012386;28;20500;-79
2022/01/12 05:28:29;;;;;;;47.08;26.10;;;;;;;1.48;98.30;103706.56;5012680;28;20032;-79
2022/01/12 05:30:56;;;;;;;47.42;25.10;;;;;;;1.48;97.61;103716.06;5012450;28;20033;-79
2022/01/12 05:33:25;;;;;;;40.72;24.42;;;;;;;1.49;97.75;103728.34;5028867;28;20110;-80
2022/01/12 05:35:56;;;;;;;48.20;24.38;;;;;;;1.49;98.20;103741.41;5028773;28;20037;-79
2022/01/12 05:38:23;;;;;;;;;;;;;;;1.52;97.41;103736.34;5029154;28;20476;-79
2022/01/12 05:40:56;;;;;;;48.47;25.80;;;;;;;1.50;97.96;103732.75;5007037;28;19994;-80
2022/01/12 05:43:26;;;;;;;46.50;25.73;;;;;;;1.49;97.86;103737.06;5048410;28;20043;-79
2022/01/12 05:45:54;;;;;;;46.42;25.58;;;;;;;1.46;97.94;103729.06;5032052;28;20067;-79
2022/01/12 05:50:51;;;;;;;45.83;25.52;;;;;;;1.50;97.98;103740.59;5032312;28;20439;-79
2022/01/12 05:53:20;;;;;;;50.65;26.35;;;;;;;1.51;98.25;103724.13;5048371;28;20044;-79
2022/01/12 05:55:50;;;;;;;52.83;28.52;;;;;;;1.51;98.44;103724.13;5048775;28;20132;-79
2022/01/12 05:58:15;;;;;;;51.00;26.73;;;;;;;1.50;98.49;103728.41;5015388;28;20029;-79
2022/01/12 06:00:41;;;;;;;52.00;26.17;;;;;;;1.52;98.43;103733.75;5048410;28;20108;-78
2022/01/12 06:03:07;;;;;;;53.13;27.83;;;;;;;1.52;98.19;103732.84;5048716;28;20393;-79
2022/01/12 06:05:33;;;;;;;60.80;28.77;;;;;;;1.51;98.62;103726.72;5046831;28;20051;-79
2022/01/12 06:07:59;;;;;;;54.53;28.95;;;;;;;1.53;98.78;103732.94;5014724;28;20469;-79
2022/01/12 06:10:25;;;;;;;55.45;27.10;;;;;;;1.53;98.79;103734.63;5001600;28;20049;-79
2022/01/12 06:12:52;;;;;;;52.33;27.35;;;;;;;1.54;98.72;103741.69;5034304;28;20227;-79
2022/01/12 06:15:19;;;;;;;55.30;30.40;;;;;;;1.54;98.98;103742.59;5050882;28;20075;-79
2022/01/12 06:17:45;;;;;;;52.95;29.77;;;;;;;1.52;98.56;103745.91;5050914;28;20123;-79
2022/01/12 06:20:11;;;;;;;58.03;30.85;;;;;;;1.53;98.63;103756.44;5034214;28;20115;-79
2022/01/12 06:23:06;;;;;;;59.22;31.25;;;;;;;1.54;98.67;103765.19;5068070;28;20096;-79
2022/01/12 06:25:33;;;;;;;60.85;30.63;;;;;;;1.56;99.12;103771.38;5018147;28;20052;-79
2022/01/12 06:28:20;;;;;;;60.45;29.38;;;;;;;1.56;98.48;103772.31;5033944;28;20043;-79
2022/01/12 06:33:28;;;;;;;56.92;29.35;;;;;;;1.59;98.57;103785.56;5020019;28;20459;-79
2022/01/12 06:35:54;;;;;;;60.72;29.95;;;;;;;1.59;99.00;103784.66;5002687;28;20186;-79
2022/01/12 06:38:21;;;;;;;54.60;29.38;;;;;;;1.59;99.03;103779.44;5018616;28;20059;-79
2022/01/12 06:40:47;;;;;;;51.85;28.17;;;;;;;1.58;98.61;103794.19;5051562;28;20464;-79
2022/01/12 06:43:13;;;;;;;55.60;30.65;;;;;;;1.59;99.09;103803.84;5053025;28;20100;-79
2022/01/12 06:45:39;;;;;;;52.33;28.67;;;;;;;1.60;98.81;103803.03;5034955;28;20053;-79
2022/01/12 06:48:06;;;;;;;51.45;27.98;;;;;;;1.61;99.19;103803.94;5051790;28;20124;-79
2022/01/12 06:50:32;;;;;;;54.40;27.92;;;;;;;1.61;99.04;103793.50;5034607;28;20121;-80
2022/01/12 06:52:58;;;;;;;53.70;28.00;;;;;;;1.62;99.08;103793.59;5033746;28;20460;-79
2022/01/12 06:55:23;;;;;;;53.35;28.75;;;;;;;1.63;99.24;103798.03;5014906;28;20037;-79
2022/01/12 06:57:49;;;;;;;49.95;27.25;;;;;;;1.61;98.83;103802.25;5031526;28;20049;-79
2022/01/12 07:00:15;;;;;;;51.08;27.35;;;;;;;1.59;99.07;103802.94;5014872;28;20048;-79
2022/01/12 07:02:42;;;;;;;53.20;28.33;;;;;;;1.59;99.29;103806.47;5015092;28;20026;-79
2022/01/12 07:05:09;;;;;;;48.47;26.70;;;;;;;1.61;98.96;103814.41;5018792;28;20127;-79
2022/01/12 07:07:35;;;;;;;58.05;30.33;;;;;;;1.63;99.35;103824.13;5051116;28;20029;-80
2022/01/12 07:10:08;;;;;;;56.10;30.33;;;;;;;1.62;99.07;103819.69;5050929;28;20072;-80
2022/01/12 07:12:38;;;;;;;54.15;27.52;;;;;;;1.65;98.82;103822.50;5034010;28;20041;-80
2022/01/12 07:15:07;;;;;;;53.95;28.23;;;;;;;1.67;98.78;103814.78;5030856;28;20135;-81
2022/01/12 07:17:35;;;;;;;51.85;28.33;;;;;;;1.68;99.35;103817.50;5032548;28;20327;-80
2022/01/12 07:20:02;;;;;;;60.13;29.75;;;;;;;1.67;98.77;103825.22;5012906;28;20128;-79
2022/01/12 07:22:30;;;;;;;52.47;27.90;;;;;;;1.65;98.98;103812.06;5015005;28;20033;-80
2022/01/12 07:24:55;;;;;;;61.53;29.65;;;;;;;1.68;99.03;103829.63;5014183;28;20048;-80
2022/01/12 07:27:21;;;;;;;60.90;31.08;;;;;;;1.66;99.12;103831.25;5032447;28;20033;-79
2022/01/12 07:29:47;;;;;;;53.83;28.17;;;;;;;1.66;98.98;103829.56;5032174;28;20068;-79
2022/01/12 07:32:12;;;;;;;57.30;30.80;;;;;;;1.69;99.33;103845.41;5032100;28;20118;-79
2022/01/12 07:34:38;;;;;;;60.15;31.73;;;;;;;1.68;99.22;103843.63;5013956;28;20041;-79
2022/01/12 07:37:03;;;;;;;56.92;29.35;;;;;;;1.68;99.33;103851.44;5032299;28;20454;-79
2022/01/12 07:39:29;;;;;;;56.30;31.00;;;;;;;1.69;99.33;103853.25;5032036;28;20052;-79
2022/01/12 07:41:54;;;;;;;59.85;33.05;;;;;;;1.70;99.75;103859.38;5030710;28;20025;-79
2022/01/12 07:44:26;;;;;;;60.17;29.38;;;;;;;1.71;99.92;103866.41;5014841;28;20033;-79
2022/01/12 07:46:52;;;;;;;67.75;27.70;;;;;;;1.71;99.51;103867.31;5014089;28;20046;-79
2022/01/12 07:49:17;;;;;;;59.60;28.58;;;;;;;1.70;99.63;103868.09;5030341;28;20068;-80
2022/01/12 07:51:43;;;;;;;62.03;31.45;;;;;;;1.73;99.64;103870.00;5031806;28;20063;-80
2022/01/12 07:54:08;;;;;;;67.95;30.13;;;;;;;1.75;99.64;103877.94;5013741;28;20061;-79
2022/01/12 07:56:34;;;;;;;63.90;30.73;;;;;;;1.76;99.87;103880.66;4998148;28;20033;-88
2022/01/12 07:58:59;;;;;;;71.15;30.63;;;;;;;1.74;99.96;103882.28;5014594;28;20041;-87
2022/01/12 08:01:25;;;;;;;65.63;29.75;;;;;;;1.77;99.67;103897.25;5030962;28;20033;-86
2022/01/12 08:03:51;;;;;;;67.07;31.75;;;;;;;1.77;100.00;103892.03;5030638;28;20041;-79
2022/01/12 08:06:17;;;;;;;80.43;33.08;;;;;;;1.82;100.00;103908.88;5030624;28;20485;-80
2022/01/12 08:08:42;;;;;;;73.03;33.25;;;;;;;1.81;99.97;103909.72;5013967;28;20109;-79
2022/01/12 08:11:08;;;;;;;81.03;31.85;;;;;;;1.84;100.00;103917.72;5029789;28;20052;-80
2022/01/12 08:13:34;;;;;;;89.22;33.53;;;;;;;1.82;100.00;103912.41;5013617;28;20262;-80
2022/01/12 08:16:00;;;;;;;77.47;33.42;;;;;;;1.81;100.00;103914.94;5013715;28;20056;-80
2022/01/12 08:18:26;;;;;;;70.88;33.33;;;;;;;1.84;100.00;103915.13;5030098;28;20451;-80
2022/01/12 08:21:04;;;;;;;81.85;32.47;;;;;;;1.79;100.00;103903.47;5013680;28;20045;-80
2022/01/12 08:23:42;;;;;;;63.85;31.40;;;;;;;1.83;100.00;103914.22;5013983;28;20417;-80
2022/01/12 08:26:16;;;;;;;61.67;32.45;;;;;;;1.85;100.00;103914.31;5013166;28;20136;-80
2022/01/12 08:28:54;;;;;;;71.15;31.27;;;;;;;1.94;100.00;103922.72;5029506;28;20385;-81
2022/01/12 08:31:58;;;;;;;79.07;31.83;;;;;;;1.93;100.00;103920.94;5029139;28;20125;-80
2022/01/12 08:34:48;;;;;;;61.15;30.13;;;;;;;1.90;100.00;103913.81;5012697;28;20079;-80
2022/01/12 08:38:02;;;;;;;59.72;28.70;;;;;;;2.04;100.00;103919.00;5013230;28;20052;-80
2022/01/12 08:41:29;;;;;;;78.30;30.08;;;;;;;1.98;100.00;103901.22;5012888;28;20402;-80
2022/01/12 08:44:17;;;;;;;80.78;31.30;;;;;;;2.07;100.00;103916.56;5011933;28;20041;-80
2022/01/12 08:47:29;;;;;;;70.32;30.38;;;;;;;1.98;100.00;103901.22;5011605;28;20041;-79
2022/01/12 08:50:23;;;;;;;58.63;28.75;;;;;;;2.03;100.00;103914.53;5008842;28;20038;-79
2022/01/12 08:52:58;;;;;;;67.10;28.40;;;;;;;2.11;100.00;103927.31;5011291;28;20529;-79
2022/01/12 08:55:24;;;;;;;64.18;27.30;;;;;;;2.09;100.00;103910.63;5011259;28;20049;-79
2022/01/12 08:57:51;;;;;;;59.85;27.95;;;;;;;2.07;100.00;103909.59;4995088;28;20033;-79
2022/01/12 09:00:25;;;;;;;57.22;24.20;;;;;;;2.17;100.00;103925.88;5011178;28;20112;-79
2022/01/12 09:03:03;;;;;;;55.03;21.15;;;;;;;2.20;100.00;103937.44;4993644;28;20568;-79
2022/01/12 09:05:40;;;;;;;52.30;23.20;;;;;;;2.26;100.00;103947.38;5012653;28;20042;-79
2022/01/12 09:08:19;;;;;;;52.03;22.52;;;;;;;2.30;100.00;103951.97;5011188;28;20041;-81
2022/01/12 09:10:50;;;;;;;54.58;21.70;;;;;;;2.28;100.00;103962.34;4983260;28;20073;-81
2022/01/12 09:13:20;;;;;;;89.43;23.45;;;;;;;2.25;100.00;103951.72;4985191;28;20149;-81
2022/01/12 09:15:48;;;;;;;139.98;24.50;;;;;;;2.31;100.00;103962.53;4991640;28;20068;-80
2022/01/12 09:18:15;;;;;;;178.23;24.05;;;;;;;2.30;100.00;103968.59;5007624;28;20045;-79
2022/01/12 09:20:41;;;;;;;96.32;23.95;;;;;;;2.30;100.00;103970.28;4991565;28;20468;-79
2022/01/12 09:23:07;;;;;;;84.38;21.88;;;;;;;2.34;100.00;103973.19;4991486;28;20026;-80
2022/01/12 09:25:35;;;;;;;72.43;22.45;;;;;;;2.36;100.00;103973.28;4975036;28;20097;-80
2022/01/12 09:28:02;;;;;;;97.55;23.75;;;;;;;2.37;100.00;103975.09;5022620;28;20398;-80
2022/01/12 09:30:29;;;;;;;52.78;20.08;;;;;;;2.43;100.00;103977.19;5028636;28;20037;-80
2022/01/12 09:32:55;;;;;;;90.40;22.75;;;;;;;2.45;100.00;103976.47;5028650;28;20544;-80
2022/01/12 09:38:43;;;;;;;63.78;22.45;;;;;;;2.43;100.00;103983.31;5046090;28;20033;-80
2022/01/12 09:41:14;;;;;;;114.30;25.60;;;;;;;2.45;100.00;103986.00;5048448;28;20056;-80
2022/01/12 09:43:52;;;;;;;58.33;21.92;;;;;;;2.43;100.00;103985.03;5047735;28;20032;-81
2022/01/12 09:46:19;;;;;;;58.30;24.50;;;;;;;2.51;100.00;104002.09;5032216;28;20029;-80
2022/01/12 09:48:45;;;;;;;50.13;22.00;;;;;;;2.52;100.00;104004.84;5048058;28;20127;-80
2022/01/12 09:51:11;;;;;;;54.25;23.35;;;;;;;2.52;100.00;103998.66;5015615;28;20041;-80
2022/01/12 09:53:38;;;;;;;52.83;23.40;;;;;;;2.57;100.00;104012.94;5048480;28;20045;-80
2022/01/12 09:56:11;;;;;;;59.65;26.85;;;;;;;2.56;100.00;104017.28;5048450;28;20055;-80
2022/01/12 09:58:36;;;;;;;59.42;24.63;;;;;;;2.57;100.00;104018.16;5048295;28;20037;-80
2022/01/12 10:01:03;;;;;;;57.22;24.73;;;;;;;2.55;100.00;104022.44;5031826;28;20041;-81
2022/01/12 10:03:29;;;;;;;62.20;25.70;;;;;;;2.58;100.00;104026.13;5048319;28;20127;-81
2022/01/12 10:05:55;;;;;;;57.60;24.20;;;;;;;2.63;100.00;104033.38;5048709;28;20480;-81
2022/01/12 10:08:21;;;;;;;70.00;25.38;;;;;;;2.64;100.00;104038.69;5047981;28;20487;-81
2022/01/12 10:11:05;;;;;;;60.70;25.05;;;;;;;2.66;100.00;104037.06;5029838;28;20143;-80
2022/01/12 10:13:34;;;;;;;60.72;25.60;;;;;;;2.69;100.00;104033.72;5028215;28;20053;-80
2022/01/12 10:16:11;;;;;;;57.47;24.92;;;;;;;2.71;100.00;104029.50;5027477;28;20535;-80
2022/01/12 10:18:50;;;;;;;59.45;23.60;;;;;;;2.76;100.00;104030.69;5027397;28;20100;-79
2022/01/12 10:21:37;;;;;;;57.92;25.38;;;;;;;2.79;100.00;104029.19;5029686;28;20708;-81
2022/01/12 10:24:09;;;;;;;49.88;23.38;;;;;;;2.83;100.00;104029.34;5029741;28;20602;-81
2022/01/12 10:26:41;;;;;;;50.08;20.80;;;;;;;2.85;99.84;104025.13;5028185;28;20038;-80
2022/01/12 10:29:17;;;;;;;51.05;22.38;;;;;;;2.87;100.00;104020.84;5028635;28;20342;-80
2022/01/12 10:31:54;;;;;;;51.35;21.02;;;;;;;2.87;99.33;104020.84;5027361;28;20426;-80
2022/01/12 10:34:25;;;;;;;49.55;20.73;;;;;;;2.87;99.32;104018.25;5027874;28;20049;-80
2022/01/12 10:36:53;;;;;;;50.80;20.92;;;;;;;2.87;99.00;104013.00;5030912;28;20087;-79
2022/01/12 10:39:21;;;;;;;51.42;24.90;;;;;;;2.88;98.88;104027.91;5031457;28;20029;-79
2022/01/12 10:42:03;;;;;;;52.88;23.10;;;;;;;2.86;98.71;104035.66;5049405;28;20036;-79
2022/01/12 10:44:30;;;;;;;49.78;22.73;;;;;;;2.85;98.16;104031.25;5047380;28;20064;-80
2022/01/12 10:47:17;;;;;;;48.05;21.70;;;;;;;2.88;98.14;104028.81;5031193;28;20182;-79
2022/01/12 10:49:58;;;;;;;48.65;21.92;;;;;;;2.90;98.54;104016.72;5047330;28;20053;-80
2022/01/12 10:52:29;;;;;;;59.42;23.00;;;;;;;2.93;98.29;104021.25;5031460;28;20465;-79
2022/01/12 10:54:57;;;;;;;48.83;22.13;;;;;;;2.93;98.25;104016.91;5047880;28;20131;-79
2022/01/12 10:57:31;;;;;;;49.72;22.92;;;;;;;2.92;98.14;104022.97;5051427;28;20047;-79
2022/01/12 11:00:08;;;;;;;50.28;22.05;;;;;;;2.94;98.30;104029.22;5051271;28;20534;-80
2022/01/12 11:02:36;;;;;;;56.35;21.63;;;;;;;2.96;98.00;104032.78;5053100;28;20036;-79
2022/01/12 11:05:02;;;;;;;58.70;23.67;;;;;;;2.99;98.59;104033.00;5034727;28;20051;-79
2022/01/12 11:07:30;;;;;;;64.60;24.15;;;;;;;3.05;98.56;104028.94;5051265;28;20111;-80
2022/01/12 11:10:01;;;;;;;54.25;23.50;;;;;;;3.03;97.88;104020.09;5034796;28;20449;-80
2022/01/12 11:12:27;;;;;;;51.42;24.65;;;;;;;3.06;98.15;104025.50;5047567;28;20129;-79
2022/01/12 11:14:53;;;;;;;50.72;23.65;;;;;;;3.06;97.55;104031.63;5031279;28;20047;-79
2022/01/12 11:17:19;;;;;;;53.67;23.52;;;;;;;3.11;97.77;104034.53;5032396;28;20075;-79
2022/01/12 11:20:06;;;;;;;50.78;24.70;;;;;;;3.12;97.96;104034.66;4998192;28;20064;-79
2022/01/12 11:22:39;;;;;;;49.83;23.13;;;;;;;3.14;97.49;104034.72;5032389;28;20040;-79
2022/01/12 11:25:29;;;;;;;57.90;25.98;;;;;;;3.19;97.54;104049.91;5030792;28;20338;-80
2022/01/12 11:28:13;;;;;;;53.53;22.70;;;;;;;3.22;97.87;104050.09;5032503;28;20083;-80
2022/01/12 11:30:45;;;;;;;58.80;23.50;;;;;;;3.24;98.07;104047.56;5030701;28;20099;-79
2022/01/12 11:33:11;;;;;;;52.78;22.48;;;;;;;3.26;96.82;104050.25;5014750;28;20049;-79
2022/01/12 11:35:46;;;;;;;47.40;21.52;;;;;;;3.25;96.29;104043.22;5032443;28;20032;-79
2022/01/12 11:38:27;;;;;;;51.70;21.92;;;;;;;3.26;96.07;104039.78;5043692;28;20093;-79
2022/01/12 11:41:07;;;;;;;57.20;23.60;;;;;;;3.25;96.13;104030.13;5051113;28;20048;-79
2022/01/12 11:43:50;;;;;;;51.35;23.40;;;;;;;3.27;96.01;104023.28;5034191;28;20064;-79
2022/01/12 11:46:24;;;;;;;51.63;22.60;;;;;;;3.26;96.48;104022.34;5051126;28;20037;-79
2022/01/12 11:48:53;;;;;;;53.78;23.00;;;;;;;3.22;96.18;104020.38;5050729;28;20469;-79
2022/01/12 11:51:34;;;;;;;49.15;21.10;;;;;;;3.22;96.22;104020.38;5052277;28;20476;-79
2022/01/12 11:54:08;;;;;;;52.95;22.48;;;;;;;3.24;96.43;104021.38;5034184;28;20453;-79
2022/01/12 11:56:35;;;;;;;56.03;23.92;;;;;;;3.22;95.73;104021.28;5050867;28;20084;-79
2022/01/12 11:59:10;;;;;;;49.97;23.98;;;;;;;3.17;95.83;104022.72;5050574;28;20429;-78
2022/01/12 12:01:40;;;;;;;56.33;24.02;;;;;;;3.19;96.34;104028.03;5050738;28;20071;-78
2022/01/12 12:04:08;;;;;;;48.00;23.10;;;;;;;3.23;96.17;104023.06;5050537;28;20091;-79
2022/01/12 12:06:34;;;;;;;51.75;23.88;;;;;;;3.25;96.09;104027.53;5050069;28;20166;-78
2022/01/12 12:09:17;;;;;;;52.97;21.17;;;;;;;3.24;96.09;104034.47;5050314;28;20047;-78
2022/01/12 12:11:51;;;;;;;45.92;21.67;;;;;;;3.31;96.49;104035.72;5046424;28;20119;-79
2022/01/12 12:14:19;;;;;;;45.17;21.45;;;;;;;3.31;95.57;104026.16;5030546;28;20088;-79
2022/01/12 12:16:45;;;;;;;43.00;20.00;;;;;;;3.34;95.10;104020.19;4997706;28;20090;-78
2022/01/12 12:19:11;;;;;;;47.20;21.88;;;;;;;3.34;95.79;104028.97;5031285;28;20034;-78
2022/01/12 12:21:39;;;;;;;50.95;22.45;;;;;;;3.38;95.47;104033.56;5030459;28;20029;-84
2022/01/12 12:24:09;;;;;;;49.08;22.08;;;;;;;3.34;95.16;104031.59;5014318;28;20033;-85
2022/01/12 12:26:54;;;;;;;45.58;22.33;;;;;;;3.26;94.43;104035.44;5030729;28;20061;-85
2022/01/12 12:29:26;;;;;;;54.75;22.80;;;;;;;3.25;95.36;104027.53;5014476;28;20056;-84
2022/01/12 12:31:54;;;;;;;45.17;21.23;;;;;;;3.25;94.79;104025.78;5014262;28;20029;-86
2022/01/12 12:34:25;;;;;;;52.55;21.42;;;;;;;3.32;94.99;104024.44;5030739;28;20079;-84
2022/01/12 12:37:04;;;;;;;;;;;;;;;3.41;95.41;104027.59;5014577;28;20079;-85
2022/01/12 12:39:36;;;;;;;45.33;20.42;;;;;;;3.36;95.32;104003.78;5014288;28;20015;-88
2022/01/12 12:42:05;;;;;;;57.55;25.13;;;;;;;3.47;96.17;104000.88;5030808;28;20132;-86
2022/01/12 12:44:33;;;;;;;46.80;22.38;;;;;;;3.44;95.42;103991.13;5030657;28;20103;-88
2022/01/12 12:47:17;;;;;;;48.20;22.60;;;;;;;3.42;95.06;103995.34;5000222;28;20128;-84
2022/01/12 12:49:47;;;;;;;50.72;21.92;;;;;;;3.43;95.11;103992.81;5031988;28;20446;-85
2022/01/12 12:52:29;;;;;;;53.50;22.00;;;;;;;3.40;95.00;103996.97;5029969;28;20370;-85
2022/01/12 12:54:56;;;;;;;49.03;22.70;;;;;;;3.40;94.98;103994.34;5013360;28;20037;-85
2022/01/12 12:57:22;;;;;;;50.85;21.55;;;;;;;3.46;95.30;103999.94;5013197;28;20099;-85